createdAt,value
2022-11-29T00:00:16.940Z,13.77
2022-11-29T00:02:20.136Z,14.35
2022-11-29T00:04:24.716Z,27.00
2022-11-29T00:06:30.046Z,17.10
2022-11-29T00:08:33.016Z,15.23
2022-11-29T00:10:37.794Z,14.32
2022-11-29T00:12:40.794Z,16.05
2022-11-29T00:14:44.325Z,17.38
2022-11-29T00:16:51.810Z,16.25
2022-11-29T00:18:54.895Z,16.80
2022-11-29T00:20:59.451Z,17.67
2022-11-29T00:23:02.728Z,16.67
2022-11-29T00:25:07.199Z,15.38
2022-11-29T00:27:10.334Z,15.80
2022-11-29T00:29:13.841Z,14.87
2022-11-29T00:31:18.596Z,15.70
2022-11-29T00:33:21.651Z,16.23
2022-11-29T00:35:24.794Z,15.93
2022-11-29T00:37:29.204Z,16.05
2022-11-29T00:39:33.046Z,14.67
2022-11-29T00:41:36.056Z,15.07
2022-11-29T00:43:39.309Z,14.40
2022-11-29T00:45:42.483Z,15.30
2022-11-29T00:47:45.455Z,15.50
2022-11-29T00:49:48.569Z,15.10
2022-11-29T00:51:51.683Z,14.05
2022-11-29T00:53:58.792Z,14.82
2022-11-29T00:56:02.190Z,14.75
2022-11-29T00:58:05.225Z,14.70
2022-11-29T01:00:09.542Z,13.27
2022-11-29T01:02:12.524Z,13.02
2022-11-29T01:04:15.582Z,14.57
2022-11-29T01:06:19.400Z,13.77
2022-11-29T01:08:22.365Z,14.75
2022-11-29T01:10:26.927Z,15.88
2022-11-29T01:12:29.973Z,14.23
2022-11-29T01:14:32.921Z,14.40
2022-11-29T01:16:36.010Z,13.38
2022-11-29T01:18:39.444Z,15.40
2022-11-29T01:20:42.383Z,13.75
2022-11-29T01:22:45.369Z,14.90
2022-11-29T01:24:48.695Z,15.40
2022-11-29T01:26:53.072Z,15.32
2022-11-29T01:28:57.483Z,15.45
2022-11-29T01:31:00.610Z,14.55
2022-11-29T01:33:03.860Z,15.20
2022-11-29T01:35:07.767Z,14.52
2022-11-29T01:37:10.735Z,15.10
2022-11-29T01:39:13.890Z,13.88
2022-11-29T01:41:19.179Z,15.82
2022-11-29T01:43:23.703Z,14.77
2022-11-29T01:45:27.778Z,13.85
2022-11-29T01:47:30.994Z,14.20
2022-11-29T01:49:36.421Z,14.38
2022-11-29T01:51:41.868Z,13.75
2022-11-29T01:53:44.813Z,13.70
2022-11-29T01:55:50.627Z,13.90
2022-11-29T01:57:53.986Z,14.50
2022-11-29T02:00:02.222Z,15.20
2022-11-29T02:02:17.503Z,14.60
2022-11-29T02:04:20.578Z,14.50
2022-11-29T02:06:24.131Z,14.30
2022-11-29T02:08:31.252Z,13.23
2022-11-29T02:10:45.817Z,14.57
2022-11-29T02:12:58.776Z,13.90
2022-11-29T02:15:11.330Z,13.25
2022-11-29T02:17:20.899Z,14.20
2022-11-29T02:19:40.384Z,13.60
2022-11-29T02:21:45.565Z,14.55
2022-11-29T02:24:15.730Z,15.27
2022-11-29T02:26:26.675Z,13.73
2022-11-29T02:28:58.216Z,13.60
2022-11-29T02:31:36.107Z,13.23
2022-11-29T02:34:09.682Z,14.10
2022-11-29T02:36:21.509Z,13.25
2022-11-29T02:38:36.819Z,11.80
2022-11-29T02:40:58.224Z,14.27
2022-11-29T02:43:19.504Z,14.38
2022-11-29T02:45:41.395Z,14.80
2022-11-29T02:47:54.994Z,14.35
2022-11-29T02:50:20.653Z,14.73
2022-11-29T02:52:31.421Z,14.50
2022-11-29T02:54:37.873Z,14.87
2022-11-29T02:56:45.516Z,13.80
2022-11-29T02:58:52.067Z,14.20
2022-11-29T03:01:01.708Z,13.77
2022-11-29T03:03:09.773Z,15.20
2022-11-29T03:05:21.578Z,15.82
2022-11-29T03:07:28.238Z,15.23
2022-11-29T03:09:38.469Z,14.35
2022-11-29T03:11:46.826Z,15.02
2022-11-29T03:13:57.506Z,14.55
2022-11-29T03:16:04.514Z,14.43
2022-11-29T03:18:22.359Z,13.50
2022-11-29T03:20:35.406Z,15.48
2022-11-29T03:22:44.399Z,14.50
2022-11-29T03:24:52.399Z,14.02
2022-11-29T03:27:01.110Z,15.15
2022-11-29T03:29:08.661Z,15.50
2022-11-29T03:31:17.070Z,14.52
2022-11-29T03:33:26.388Z,15.40
2022-11-29T03:35:34.815Z,15.02
2022-11-29T03:37:45.243Z,14.35
2022-11-29T03:39:53.283Z,14.20
2022-11-29T03:41:59.888Z,14.50
2022-11-29T03:44:08.261Z,13.23
2022-11-29T03:46:15.815Z,13.80
2022-11-29T03:48:24.823Z,15.10
2022-11-29T03:50:33.791Z,15.07
2022-11-29T03:52:40.080Z,14.07
2022-11-29T03:54:48.127Z,13.80
2022-11-29T03:56:51.694Z,15.17
2022-11-29T03:58:58.739Z,13.70
2022-11-29T04:01:19.683Z,15.30
2022-11-29T04:03:49.744Z,14.65
2022-11-29T04:06:21.677Z,13.90
2022-11-29T04:09:15.781Z,13.65
2022-11-29T04:11:55.682Z,13.52
2022-11-29T04:14:22.882Z,13.80
2022-11-29T04:16:49.678Z,13.80
2022-11-29T04:19:19.643Z,12.85
2022-11-29T04:21:36.542Z,13.77
2022-11-29T04:24:10.709Z,14.57
2022-11-29T04:26:35.919Z,14.63
2022-11-29T04:28:57.442Z,14.18
2022-11-29T04:31:04.930Z,15.25
2022-11-29T04:33:53.529Z,14.00
2022-11-29T04:36:23.364Z,13.53
2022-11-29T04:38:33.692Z,13.77
2022-11-29T04:40:50.543Z,13.00
2022-11-29T04:43:07.429Z,12.87
2022-11-29T04:45:37.458Z,13.57
2022-11-29T04:47:51.326Z,15.23
2022-11-29T04:50:10.947Z,13.80
2022-11-29T04:52:37.988Z,15.40
2022-11-29T04:54:47.520Z,15.10
2022-11-29T04:56:52.464Z,15.60
2022-11-29T04:59:00.566Z,15.00
2022-11-29T05:01:08.239Z,15.38
2022-11-29T05:03:15.843Z,15.80
2022-11-29T05:05:28.424Z,15.60
2022-11-29T05:07:36.092Z,15.50
2022-11-29T05:09:48.444Z,15.20
2022-11-29T05:11:59.427Z,14.93
2022-11-29T05:14:08.865Z,14.25
2022-11-29T05:16:21.693Z,13.95
2022-11-29T05:18:38.731Z,15.30
2022-11-29T05:20:47.360Z,14.33
2022-11-29T05:22:59.540Z,15.38
2022-11-29T05:25:17.781Z,15.68
2022-11-29T05:27:28.363Z,14.75
2022-11-29T05:29:35.624Z,14.73
2022-11-29T05:31:51.830Z,15.55
2022-11-29T05:34:07.212Z,15.57
2022-11-29T05:36:16.056Z,14.75
2022-11-29T05:38:35.325Z,16.05
2022-11-29T05:40:46.216Z,14.70
2022-11-29T05:43:05.387Z,15.88
2022-11-29T05:45:13.625Z,16.27
2022-11-29T05:47:20.012Z,15.48
2022-11-29T05:49:30.827Z,15.70
2022-11-29T05:51:41.356Z,15.88
2022-11-29T05:53:50.368Z,15.30
2022-11-29T05:56:00.487Z,15.73
2022-11-29T05:58:05.758Z,15.82
2022-11-29T06:00:12.195Z,15.15
2022-11-29T06:02:24.284Z,14.97
2022-11-29T06:04:33.225Z,17.13
2022-11-29T06:06:40.735Z,15.23
2022-11-29T06:08:47.072Z,14.50
2022-11-29T06:11:00.689Z,15.47
2022-11-29T06:13:12.771Z,15.93
2022-11-29T06:15:46.299Z,15.35
2022-11-29T06:18:01.637Z,16.30
2022-11-29T06:20:14.317Z,17.48
2022-11-29T06:22:40.067Z,16.30
2022-11-29T06:24:51.825Z,15.95
2022-11-29T06:27:20.314Z,16.40
2022-11-29T06:29:29.182Z,17.50
2022-11-29T06:31:38.066Z,17.57
2022-11-29T06:33:46.999Z,18.03
2022-11-29T06:35:53.861Z,17.45
2022-11-29T06:37:59.119Z,17.67
2022-11-29T06:40:02.573Z,17.40
2022-11-29T06:42:07.061Z,14.90
2022-11-29T06:44:11.643Z,16.15
2022-11-29T06:46:23.794Z,18.20
2022-11-29T06:48:28.578Z,19.90
2022-11-29T06:50:38.220Z,19.30
2022-11-29T06:52:47.939Z,17.43
2022-11-29T06:55:02.740Z,19.80
2022-11-29T06:57:13.142Z,19.77
2022-11-29T06:59:30.996Z,20.60
2022-11-29T07:01:39.827Z,20.88
2022-11-29T07:04:01.650Z,24.77
2022-11-29T07:06:10.055Z,23.15
2022-11-29T07:08:16.408Z,20.65
2022-11-29T07:10:20.691Z,18.70
2022-11-29T07:12:26.051Z,21.67
2022-11-29T07:14:29.670Z,20.92
2022-11-29T07:16:35.238Z,20.53
2022-11-29T07:18:44.596Z,20.10
2022-11-29T07:20:55.709Z,21.00
2022-11-29T07:23:04.539Z,22.10
2022-11-29T07:25:18.147Z,20.70
2022-11-29T07:27:24.188Z,22.97
2022-11-29T07:29:35.615Z,20.50
2022-11-29T07:31:46.985Z,20.80
2022-11-29T07:33:55.693Z,21.83
2022-11-29T07:36:04.532Z,19.90
2022-11-29T07:38:11.282Z,21.57
2022-11-29T07:40:16.801Z,20.13
2022-11-29T07:42:26.703Z,23.10
2022-11-29T07:44:36.936Z,29.55
2022-11-29T07:46:39.998Z,24.73
2022-11-29T07:48:43.027Z,20.02
2022-11-29T07:50:46.311Z,20.45
2022-11-29T07:52:49.834Z,21.60
2022-11-29T07:54:52.912Z,24.27
2022-11-29T07:56:55.987Z,19.77
2022-11-29T07:58:59.084Z,21.17
2022-11-29T08:01:03.527Z,20.98
2022-11-29T08:03:07.245Z,19.65
2022-11-29T08:05:11.135Z,17.25
2022-11-29T08:07:14.158Z,18.13
2022-11-29T08:09:17.261Z,19.15
2022-11-29T08:11:20.334Z,18.53
2022-11-29T08:13:23.429Z,19.27
2022-11-29T08:15:27.437Z,20.27
2022-11-29T08:17:32.042Z,20.13
2022-11-29T08:19:35.226Z,19.90
2022-11-29T08:21:38.330Z,17.50
2022-11-29T08:23:41.355Z,16.73
2022-11-29T08:25:45.870Z,17.90
2022-11-29T08:27:48.872Z,16.37
2022-11-29T08:29:51.835Z,24.00
2022-11-29T08:31:55.418Z,16.67
2022-11-29T08:33:59.869Z,17.60
2022-11-29T08:36:06.234Z,15.80
2022-11-29T08:38:09.231Z,16.00
2022-11-29T08:40:13.604Z,16.85
2022-11-29T08:42:16.596Z,17.57
2022-11-29T08:44:19.605Z,16.03
2022-11-29T08:46:22.789Z,15.47
2022-11-29T08:48:26.405Z,15.03
2022-11-29T08:50:30.804Z,17.03
2022-11-29T08:52:52.728Z,17.55
2022-11-29T08:55:00.328Z,15.90
2022-11-29T08:57:37.947Z,15.40
2022-11-29T08:59:29.133Z,15.83
2022-11-29T09:01:32.299Z,14.10
2022-11-29T09:03:53.005Z,14.50
2022-11-29T09:05:57.513Z,13.27
2022-11-29T09:08:00.694Z,13.73
2022-11-29T09:10:08.120Z,13.47
2022-11-29T09:12:11.410Z,13.80
2022-11-29T09:14:16.662Z,13.00
2022-11-29T09:16:22.554Z,13.40
2022-11-29T09:18:28.366Z,12.83
2022-11-29T09:20:31.366Z,12.70
2022-11-29T09:22:35.834Z,12.10
2022-11-29T09:24:38.943Z,11.90
2022-11-29T09:26:42.382Z,11.60
2022-11-29T09:28:45.652Z,11.87
2022-11-29T09:30:50.475Z,10.80
2022-11-29T09:32:53.663Z,11.90
2022-11-29T09:34:56.644Z,10.87
2022-11-29T09:36:59.796Z,11.30
2022-11-29T09:39:04.433Z,11.27
2022-11-29T09:41:20.744Z,11.17
2022-11-29T09:43:28.413Z,10.70
2022-11-29T09:45:34.731Z,11.00
2022-11-29T09:47:58.860Z,10.63
2022-11-29T09:50:13.578Z,10.00
2022-11-29T09:52:24.827Z,11.53
2022-11-29T09:54:37.200Z,10.10
2022-11-29T09:56:42.490Z,10.00
2022-11-29T09:58:49.805Z,11.00
2022-11-29T10:00:56.356Z,8.73
2022-11-29T10:03:03.576Z,9.97
2022-11-29T10:05:12.351Z,8.93
2022-11-29T10:07:20.716Z,8.70
2022-11-29T10:09:30.842Z,8.63
2022-11-29T10:11:42.221Z,7.30
2022-11-29T10:13:49.301Z,8.07
2022-11-29T10:15:55.053Z,9.30
2022-11-29T10:18:02.813Z,9.00
2022-11-29T10:20:12.540Z,9.20
2022-11-29T10:22:21.174Z,9.67
2022-11-29T10:24:24.605Z,10.00
2022-11-29T10:26:33.536Z,11.13
2022-11-29T10:28:39.548Z,13.18
2022-11-29T10:30:43.330Z,13.43
2022-11-29T10:32:48.869Z,14.10
2022-11-29T10:34:52.754Z,10.63
2022-11-29T10:36:59.392Z,8.03
2022-11-29T10:39:08.804Z,7.43
2022-11-29T10:41:20.231Z,8.67
2022-11-29T10:43:23.343Z,9.30
2022-11-29T10:45:30.719Z,9.37
2022-11-29T10:47:34.148Z,8.37
2022-11-29T10:49:37.794Z,8.20
2022-11-29T10:51:40.922Z,8.23
2022-11-29T10:53:43.992Z,8.13
2022-11-29T10:55:49.523Z,8.47
2022-11-29T10:58:14.651Z,8.83
2022-11-29T11:00:18.582Z,7.57
2022-11-29T11:02:24.515Z,7.73
2022-11-29T11:04:30.638Z,7.30
2022-11-29T11:06:44.143Z,8.23
2022-11-29T11:08:49.803Z,7.77
2022-11-29T11:10:56.417Z,8.00
2022-11-29T11:13:04.472Z,8.13
2022-11-29T11:15:28.591Z,8.97
2022-11-29T11:17:33.832Z,8.40
2022-11-29T11:19:37.795Z,9.00
2022-11-29T11:21:40.825Z,8.67
2022-11-29T11:23:47.717Z,8.10
2022-11-29T11:25:58.106Z,9.50
2022-11-29T11:28:15.328Z,11.03
2022-11-29T11:30:21.644Z,10.43
2022-11-29T11:32:24.708Z,10.40
2022-11-29T11:34:35.167Z,9.70
2022-11-29T11:36:38.170Z,11.13
2022-11-29T11:38:43.055Z,8.50
2022-11-29T11:40:46.641Z,9.20
2022-11-29T11:42:50.643Z,8.60
2022-11-29T11:44:53.768Z,10.23
2022-11-29T11:46:57.166Z,5.73
2022-11-29T11:49:00.195Z,7.03
2022-11-29T11:51:04.838Z,7.20
2022-11-29T11:53:09.148Z,8.73
2022-11-29T11:55:29.021Z,10.60
2022-11-29T11:57:32.546Z,9.20
2022-11-29T11:59:35.717Z,9.90
2022-11-29T12:01:40.383Z,9.30
2022-11-29T12:03:49.675Z,10.23
2022-11-29T12:05:54.337Z,9.63
2022-11-29T12:08:08.899Z,8.20
2022-11-29T12:10:18.171Z,7.30
2022-11-29T12:12:24.483Z,7.80
2022-11-29T12:14:35.587Z,7.13
2022-11-29T12:16:42.679Z,7.20
2022-11-29T12:18:49.803Z,7.10
2022-11-29T12:20:56.852Z,7.47
2022-11-29T12:23:19.906Z,7.40
2022-11-29T12:25:26.331Z,7.63
2022-11-29T12:27:29.457Z,7.87
2022-11-29T12:29:34.520Z,11.67
2022-11-29T12:31:46.333Z,10.23
2022-11-29T12:33:54.199Z,9.33
2022-11-29T12:36:10.832Z,7.73
2022-11-29T12:38:32.067Z,7.47
2022-11-29T12:40:41.871Z,7.33
2022-11-29T12:42:51.823Z,6.83
2022-11-29T12:45:01.136Z,7.33
2022-11-29T12:49:40.781Z,8.03
2022-11-29T12:51:49.376Z,7.63
2022-11-29T12:54:05.652Z,7.70
2022-11-29T12:56:16.053Z,8.00
2022-11-29T12:58:27.511Z,7.10
2022-11-29T13:00:35.838Z,8.10
2022-11-29T13:02:49.507Z,7.43
2022-11-29T13:05:00.052Z,7.27
2022-11-29T13:07:07.215Z,7.47
2022-11-29T13:09:22.762Z,7.57
2022-11-29T13:11:28.704Z,6.90
2022-11-29T13:13:39.302Z,6.97
2022-11-29T13:15:45.143Z,7.03
2022-11-29T13:17:54.157Z,8.07
2022-11-29T13:19:58.051Z,7.23
2022-11-29T13:22:08.179Z,7.20
2022-11-29T13:24:15.750Z,7.17
2022-11-29T13:26:19.632Z,7.23
2022-11-29T13:28:25.428Z,6.83
2022-11-29T13:30:28.943Z,7.40
2022-11-29T13:32:36.239Z,8.23
2022-11-29T13:34:43.197Z,16.27
2022-11-29T13:36:58.439Z,10.70
2022-11-29T13:39:09.713Z,8.20
2022-11-29T13:41:22.940Z,9.40
2022-11-29T13:43:30.947Z,7.77
2022-11-29T13:45:38.569Z,8.50
2022-11-29T13:47:49.636Z,7.90
2022-11-29T13:49:55.335Z,7.20
2022-11-29T13:52:06.272Z,7.30
2022-11-29T13:54:30.348Z,6.90
2022-11-29T13:56:43.167Z,7.07
2022-11-29T13:58:46.485Z,7.03
2022-11-29T14:00:51.578Z,7.35
2022-11-29T14:02:56.131Z,7.30
2022-11-29T14:04:59.503Z,7.37
2022-11-29T14:07:05.190Z,7.03
2022-11-29T14:09:28.732Z,7.20
2022-11-29T14:11:37.620Z,7.77
2022-11-29T14:13:53.245Z,6.80
2022-11-29T14:15:59.140Z,7.23
2022-11-29T14:18:03.566Z,7.10
2022-11-29T14:20:49.450Z,8.77
2022-11-29T14:23:17.892Z,8.23
2022-11-29T14:25:50.401Z,7.40
2022-11-29T14:28:00.305Z,8.52
2022-11-29T14:30:03.515Z,12.50
2022-11-29T14:32:22.668Z,8.77
2022-11-29T14:34:39.872Z,7.00
2022-11-29T14:36:50.145Z,7.77
2022-11-29T14:38:59.948Z,8.00
2022-11-29T14:41:06.917Z,7.85
2022-11-29T14:43:18.098Z,7.18
2022-11-29T14:45:26.812Z,7.57
2022-11-29T14:47:31.868Z,7.80
2022-11-29T14:49:41.107Z,9.00
2022-11-29T14:52:08.223Z,11.47
2022-11-29T14:54:17.974Z,14.37
2022-11-29T14:56:39.055Z,16.50
2022-11-29T14:58:44.096Z,11.67
2022-11-29T15:01:09.862Z,14.40
2022-11-29T15:03:18.563Z,16.48
2022-11-29T15:05:28.007Z,15.07
2022-11-29T15:07:33.104Z,10.70
2022-11-29T15:09:37.779Z,10.23
2022-11-29T15:11:52.642Z,10.87
2022-11-29T15:14:04.036Z,11.55
2022-11-29T15:16:23.243Z,11.47
2022-11-29T15:18:43.325Z,9.77
2022-11-29T15:20:57.696Z,7.70
2022-11-29T15:23:02.820Z,8.27
2022-11-29T15:25:12.974Z,9.20
2022-11-29T15:27:18.116Z,8.87
2022-11-29T15:29:22.617Z,8.40
2022-11-29T15:31:25.910Z,8.50
2022-11-29T15:33:30.500Z,9.00
2022-11-29T15:35:37.991Z,11.83
2022-11-29T15:37:44.486Z,14.10
2022-11-29T15:39:47.644Z,14.43
2022-11-29T15:41:50.806Z,16.40
2022-11-29T15:43:55.573Z,15.93
2022-11-29T15:46:03.109Z,14.43
2022-11-29T15:48:19.134Z,13.02
2022-11-29T15:50:27.196Z,12.35
2022-11-29T15:52:33.873Z,11.67
2022-11-29T15:54:40.255Z,10.95
2022-11-29T15:56:46.953Z,11.63
2022-11-29T15:58:51.214Z,11.00
2022-11-29T16:00:56.345Z,12.13
2022-11-29T16:03:03.685Z,10.00
2022-11-29T16:05:14.538Z,11.03
2022-11-29T16:07:19.330Z,11.53
2022-11-29T16:09:26.384Z,10.83
2022-11-29T16:11:32.446Z,14.00
2022-11-29T16:13:40.283Z,12.80
2022-11-29T16:15:43.397Z,12.43
2022-11-29T16:17:46.534Z,14.05
2022-11-29T16:19:50.926Z,14.40
2022-11-29T16:22:10.355Z,13.23
2022-11-29T16:24:15.060Z,12.40
2022-11-29T16:26:19.981Z,12.77
2022-11-29T16:28:23.450Z,12.52
2022-11-29T16:30:27.887Z,12.70
2022-11-29T16:32:32.577Z,12.83
2022-11-29T16:34:35.719Z,12.07
2022-11-29T16:36:40.145Z,13.02
2022-11-29T16:38:46.216Z,15.07
2022-11-29T16:41:03.812Z,14.05
2022-11-29T16:43:23.837Z,30.63
2022-11-29T16:45:34.923Z,14.23
2022-11-29T16:47:52.298Z,13.05
2022-11-29T16:50:13.653Z,12.82
2022-11-29T16:52:26.191Z,13.00
2022-11-29T16:54:34.074Z,14.60
2022-11-29T16:56:39.606Z,16.90
2022-11-29T16:59:26.929Z,15.85
2022-11-29T17:01:17.278Z,16.60
2022-11-29T17:03:20.352Z,19.27
2022-11-29T17:05:23.782Z,13.57
2022-11-29T17:07:31.097Z,15.20
2022-11-29T17:09:34.463Z,15.95
2022-11-29T17:11:37.447Z,20.20
2022-11-29T17:13:40.970Z,35.33
2022-11-29T17:15:44.133Z,44.08
2022-11-29T17:17:47.282Z,26.10
2022-11-29T17:19:50.484Z,25.30
2022-11-29T17:21:54.354Z,30.92
2022-11-29T17:23:59.140Z,31.07
2022-11-29T17:26:03.339Z,34.08
2022-11-29T17:28:06.713Z,24.90
2022-11-29T17:30:11.323Z,26.85
2022-11-29T17:32:14.452Z,28.98
2022-11-29T17:34:17.713Z,18.40
2022-11-29T17:36:21.691Z,17.85
2022-11-29T17:38:25.034Z,20.15
2022-11-29T17:40:29.468Z,19.13
2022-11-29T17:42:32.604Z,21.80
2022-11-29T17:44:35.802Z,21.67
2022-11-29T17:46:39.535Z,18.83
2022-11-29T17:48:45.034Z,20.02
2022-11-29T17:50:49.957Z,19.85
2022-11-29T17:52:52.956Z,21.80
2022-11-29T17:54:55.978Z,18.67
2022-11-29T17:57:01.017Z,19.30
2022-11-29T17:59:05.282Z,20.00
2022-11-29T18:01:09.903Z,19.23
2022-11-29T18:03:13.049Z,19.58
2022-11-29T18:05:16.303Z,19.45
2022-11-29T18:07:19.423Z,17.33
2022-11-29T18:09:22.579Z,17.07
2022-11-29T18:11:27.696Z,17.80
2022-11-29T18:13:32.166Z,19.03
2022-11-29T18:15:35.224Z,17.87
2022-11-29T18:17:38.363Z,18.10
2022-11-29T18:19:42.298Z,19.37
2022-11-29T18:21:45.456Z,19.50
2022-11-29T18:23:48.523Z,18.23
2022-11-29T18:25:56.949Z,19.10
2022-11-29T18:27:59.989Z,18.77
2022-11-29T18:30:04.995Z,17.55
2022-11-29T18:32:07.986Z,18.03
2022-11-29T18:34:13.171Z,17.23
2022-11-29T18:36:17.658Z,17.27
2022-11-29T18:38:20.722Z,17.63
2022-11-29T18:40:24.195Z,19.00
2022-11-29T18:42:27.214Z,18.10
2022-11-29T18:44:30.286Z,18.17
2022-11-29T18:46:36.866Z,18.60
2022-11-29T18:48:40.536Z,19.17
2022-11-29T18:50:43.627Z,18.53
2022-11-29T18:52:46.653Z,19.33
2022-11-29T18:54:49.696Z,19.20
2022-11-29T18:56:52.798Z,19.03
2022-11-29T18:58:58.743Z,19.00
2022-11-29T19:01:06.099Z,19.33
2022-11-29T19:03:10.509Z,18.77
2022-11-29T19:05:13.626Z,19.33
2022-11-29T19:07:16.837Z,20.15
2022-11-29T19:09:22.077Z,19.45
2022-11-29T19:11:26.836Z,19.23
2022-11-29T19:13:29.809Z,19.47
2022-11-29T19:15:33.046Z,19.03
2022-11-29T19:17:41.684Z,21.10
2022-11-29T19:19:47.960Z,23.57
2022-11-29T19:21:51.158Z,26.00
2022-11-29T19:23:55.870Z,24.97
2022-11-29T19:26:03.122Z,27.50
2022-11-29T19:28:12.473Z,28.20
2022-11-29T19:30:17.741Z,23.80
2022-11-29T19:32:20.993Z,25.90
2022-11-29T19:34:24.079Z,24.27
2022-11-29T19:36:29.545Z,22.60
2022-11-29T19:38:32.678Z,23.17
2022-11-29T19:40:35.718Z,23.70
2022-11-29T19:42:38.966Z,22.80
2022-11-29T19:45:14.763Z,22.07
2022-11-29T19:47:05.282Z,22.92
2022-11-29T19:49:09.408Z,24.03
2022-11-29T19:51:13.735Z,24.43
2022-11-29T19:53:18.385Z,24.83
2022-11-29T19:55:21.561Z,22.80
2022-11-29T19:57:24.781Z,24.87
2022-11-29T19:59:27.837Z,24.15
2022-11-29T20:01:40.385Z,23.87
2022-11-29T20:03:45.156Z,23.27
2022-11-29T20:05:55.447Z,23.57
2022-11-29T20:07:58.449Z,21.90
2022-11-29T20:10:03.039Z,21.40
2022-11-29T20:12:06.520Z,21.57
2022-11-29T20:14:11.696Z,21.05
2022-11-29T20:16:17.106Z,21.67
2022-11-29T20:18:20.208Z,22.50
2022-11-29T20:20:24.118Z,22.60
2022-11-29T20:22:27.261Z,24.53
2022-11-29T20:24:34.831Z,24.17
2022-11-29T20:26:44.855Z,23.60
2022-11-29T20:28:48.426Z,26.17
2022-11-29T20:30:51.511Z,24.88
2022-11-29T20:32:54.838Z,22.60
2022-11-29T20:34:59.514Z,22.43
2022-11-29T20:37:22.092Z,23.63
2022-11-29T20:39:33.377Z,22.00
2022-11-29T20:41:42.260Z,21.48
2022-11-29T20:43:51.150Z,21.00
2022-11-29T20:45:54.512Z,22.30
2022-11-29T20:48:01.919Z,22.10
2022-11-29T20:50:05.691Z,22.37
2022-11-29T20:52:12.322Z,22.23
2022-11-29T20:54:16.409Z,23.87
2022-11-29T20:56:19.408Z,24.30
2022-11-29T20:58:22.503Z,24.10
2022-11-29T21:00:27.174Z,24.33
2022-11-29T21:02:30.275Z,22.80
2022-11-29T21:04:33.283Z,22.17
2022-11-29T21:06:38.343Z,24.30
2022-11-29T21:08:41.487Z,24.23
2022-11-29T21:10:45.489Z,27.20
2022-11-29T21:12:49.498Z,27.65
2022-11-29T21:14:53.149Z,32.22
2022-11-29T21:16:58.413Z,37.10
2022-11-29T21:19:03.191Z,28.10
2022-11-29T21:21:18.962Z,25.30
2022-11-29T21:23:27.676Z,23.15
2022-11-29T21:25:42.661Z,24.52
2022-11-29T21:27:46.322Z,22.50
2022-11-29T21:29:50.182Z,23.75
2022-11-29T21:31:55.431Z,22.13
2022-11-29T21:34:00.442Z,24.23
2022-11-29T21:36:05.603Z,22.50
2022-11-29T21:38:12.805Z,24.88
2022-11-29T21:40:16.191Z,23.63
2022-11-29T21:42:19.183Z,23.58
2022-11-29T21:44:22.502Z,21.73
2022-11-29T21:46:25.719Z,23.67
2022-11-29T21:48:37.985Z,24.02
2022-11-29T21:50:42.644Z,23.70
2022-11-29T21:52:45.688Z,23.88
2022-11-29T21:54:49.065Z,23.45
2022-11-29T21:56:52.441Z,24.10
2022-11-29T21:58:55.599Z,23.77
2022-11-29T22:01:07.020Z,21.57
2022-11-29T22:03:10.326Z,24.00
2022-11-29T22:05:13.734Z,22.52
2022-11-29T22:07:18.092Z,22.55
2022-11-29T22:09:22.123Z,22.20
2022-11-29T22:11:31.845Z,22.83
2022-11-29T22:13:34.954Z,23.15
2022-11-29T22:15:37.967Z,23.48
2022-11-29T22:17:41.061Z,24.38
2022-11-29T22:19:44.126Z,25.80
2022-11-29T22:21:49.117Z,23.83
2022-11-29T22:23:54.543Z,24.40
2022-11-29T22:26:03.004Z,24.08
2022-11-29T22:28:06.596Z,29.45
2022-11-29T22:30:10.382Z,25.15
2022-11-29T22:32:13.394Z,24.80
2022-11-29T22:34:16.974Z,22.15
2022-11-29T22:36:20.148Z,22.42
2022-11-29T22:38:23.139Z,23.45
2022-11-29T22:40:27.523Z,23.05
2022-11-29T22:42:30.543Z,21.65
2022-11-29T22:44:33.640Z,20.13
2022-11-29T22:46:36.915Z,22.15
2022-11-29T22:48:40.530Z,21.85
2022-11-29T22:50:43.683Z,21.17
2022-11-29T22:52:46.708Z,22.00
2022-11-29T22:54:49.902Z,19.23
2022-11-29T22:56:54.439Z,20.10
2022-11-29T22:58:57.565Z,19.75
2022-11-29T23:01:04.537Z,21.50
2022-11-29T23:03:07.674Z,20.23
2022-11-29T23:05:10.986Z,20.05
2022-11-29T23:07:14.035Z,19.48
2022-11-29T23:09:21.151Z,22.10
2022-11-29T23:11:25.898Z,23.80
2022-11-29T23:13:30.792Z,23.35
2022-11-29T23:15:33.810Z,22.58
2022-11-29T23:17:36.784Z,22.00
2022-11-29T23:19:39.744Z,20.60
2022-11-29T23:21:45.428Z,19.88
2022-11-29T23:23:54.540Z,21.42
2022-11-29T23:25:59.425Z,20.50
2022-11-29T23:28:02.422Z,20.30
2022-11-29T23:30:08.534Z,19.73
2022-11-29T23:32:11.477Z,18.60
2022-11-29T23:34:14.834Z,19.87
2022-11-29T23:36:17.934Z,19.13
2022-11-29T23:38:20.987Z,18.03
2022-11-29T23:40:23.919Z,19.13
2022-11-29T23:42:26.939Z,19.70
2022-11-29T23:44:29.965Z,19.40
2022-11-29T23:46:35.512Z,19.38
2022-11-29T23:48:38.513Z,19.10
2022-11-29T23:50:42.470Z,19.95
2022-11-29T23:52:45.462Z,18.52
2022-11-29T23:54:48.842Z,19.83
2022-11-29T23:56:51.980Z,19.52
2022-11-29T23:58:54.981Z,19.30
